createdAt,value
2018-03-18T00:00:26.541Z,17.30
2018-03-18T00:01:26.429Z,17.10
2018-03-18T00:02:26.384Z,18.10
2018-03-18T00:03:26.289Z,18.40
2018-03-18T00:04:26.234Z,17.50
2018-03-18T00:05:26.458Z,17.50
2018-03-18T00:06:26.177Z,17.50
2018-03-18T00:07:25.847Z,16.60
2018-03-18T00:08:25.783Z,17.30
2018-03-18T00:09:27.479Z,14.10
2018-03-18T00:10:25.649Z,17.90
2018-03-18T00:11:25.527Z,18.30
2018-03-18T00:12:25.313Z,17.70
2018-03-18T00:13:25.239Z,17.90
2018-03-18T00:14:25.226Z,16.60
2018-03-18T00:15:25.027Z,16.70
2018-03-18T00:16:24.953Z,18.10
2018-03-18T00:17:25.463Z,18.50
2018-03-18T00:18:24.791Z,15.90
2018-03-18T00:19:24.574Z,18.50
2018-03-18T00:20:24.505Z,16.80
2018-03-18T00:21:24.484Z,15.50
2018-03-18T00:22:24.319Z,18.30
2018-03-18T00:23:24.964Z,18.30
2018-03-18T00:24:24.083Z,17.00
2018-03-18T00:25:23.942Z,17.80
2018-03-18T00:26:23.822Z,18.60
2018-03-18T00:27:23.864Z,18.10
2018-03-18T00:28:23.709Z,15.40
2018-03-18T00:29:23.601Z,17.20
2018-03-18T00:30:23.484Z,18.40
2018-03-18T00:31:23.424Z,16.70
2018-03-18T00:32:23.424Z,17.10
2018-03-18T00:33:23.297Z,17.60
2018-03-18T00:34:23.059Z,19.00
2018-03-18T00:35:22.963Z,17.40
2018-03-18T00:36:22.837Z,14.70
2018-03-18T00:37:22.754Z,16.20
2018-03-18T00:38:23.459Z,15.40
2018-03-18T00:39:22.614Z,16.50
2018-03-18T00:40:22.473Z,17.50
2018-03-18T00:41:22.364Z,18.20
2018-03-18T00:42:22.964Z,17.40
2018-03-18T00:43:22.167Z,17.20
2018-03-18T00:44:22.314Z,17.40
2018-03-18T00:45:21.948Z,18.70
2018-03-18T00:46:22.462Z,16.80
2018-03-18T00:47:21.733Z,17.30
2018-03-18T00:48:22.461Z,17.00
2018-03-18T00:49:21.542Z,16.50
2018-03-18T00:50:21.640Z,17.40
2018-03-18T00:51:21.367Z,17.50
2018-03-18T00:52:21.412Z,16.60
2018-03-18T00:53:21.194Z,16.70
2018-03-18T00:54:21.135Z,16.90
2018-03-18T00:55:20.942Z,17.00
2018-03-18T00:56:20.902Z,16.20
2018-03-18T00:57:20.923Z,17.50
2018-03-18T00:58:20.633Z,17.90
2018-03-18T00:59:20.491Z,17.10
2018-03-18T01:00:20.414Z,15.90
2018-03-18T01:01:20.286Z,16.90
2018-03-18T01:02:20.253Z,16.50
2018-03-18T01:03:21.972Z,16.60
2018-03-18T01:04:19.997Z,16.80
2018-03-18T01:05:19.905Z,16.40
2018-03-18T01:06:21.460Z,17.00
2018-03-18T01:07:19.745Z,16.50
2018-03-18T01:08:19.651Z,16.80
2018-03-18T01:09:19.550Z,16.70
2018-03-18T01:10:19.469Z,16.10
2018-03-18T01:11:19.351Z,16.20
2018-03-18T01:12:19.195Z,16.10
2018-03-18T01:13:19.163Z,15.30
2018-03-18T01:14:19.066Z,16.30
2018-03-18T01:15:18.952Z,15.70
2018-03-18T01:16:18.796Z,17.20
2018-03-18T01:17:19.460Z,16.20
2018-03-18T01:18:18.571Z,16.20
2018-03-18T01:19:18.559Z,15.60
2018-03-18T01:20:18.389Z,16.10
2018-03-18T01:21:18.293Z,17.90
2018-03-18T01:22:18.128Z,15.50
2018-03-18T01:23:18.062Z,15.10
2018-03-18T01:24:18.461Z,16.30
2018-03-18T01:25:17.967Z,15.80
2018-03-18T01:26:17.778Z,15.20
2018-03-18T01:27:17.652Z,15.80
2018-03-18T01:28:17.619Z,15.80
2018-03-18T01:29:17.498Z,15.50
2018-03-18T01:30:17.374Z,14.60
2018-03-18T01:31:17.325Z,16.90
2018-03-18T01:32:17.167Z,15.60
2018-03-18T01:33:17.094Z,15.90
2018-03-18T01:34:16.896Z,14.90
2018-03-18T01:35:16.887Z,14.80
2018-03-18T01:36:17.461Z,14.90
2018-03-18T01:37:16.763Z,14.60
2018-03-18T01:38:16.541Z,15.90
2018-03-18T01:39:16.965Z,15.20
2018-03-18T01:40:16.413Z,15.30
2018-03-18T01:41:16.228Z,14.90
2018-03-18T01:42:16.131Z,15.60
2018-03-18T01:43:16.074Z,15.60
2018-03-18T01:44:15.929Z,16.10
2018-03-18T01:45:15.828Z,15.60
2018-03-18T01:46:16.462Z,14.50
2018-03-18T01:47:15.595Z,14.90
2018-03-18T01:48:15.504Z,15.70
2018-03-18T01:49:15.430Z,13.10
2018-03-18T01:50:15.348Z,14.90
2018-03-18T01:51:15.205Z,14.40
2018-03-18T01:52:15.963Z,14.20
2018-03-18T01:53:15.036Z,14.90
2018-03-18T01:54:14.923Z,15.60
2018-03-18T01:55:15.470Z,14.20
2018-03-18T01:56:14.926Z,12.70
2018-03-18T01:57:14.562Z,13.80
2018-03-18T01:58:14.517Z,13.80
2018-03-18T01:59:14.680Z,11.50
2018-03-18T02:00:14.976Z,14.80
2018-03-18T02:01:15.799Z,13.60
2018-03-18T02:02:17.584Z,13.20
2018-03-18T02:03:14.078Z,13.50
2018-03-18T02:04:13.953Z,14.10
2018-03-18T02:05:13.791Z,13.60
2018-03-18T02:06:14.463Z,13.80
2018-03-18T02:07:13.583Z,13.00
2018-03-18T02:08:13.416Z,12.80
2018-03-18T02:09:13.421Z,12.50
2018-03-18T02:10:13.291Z,14.00
2018-03-18T02:11:13.963Z,13.40
2018-03-18T02:12:13.104Z,15.10
2018-03-18T02:13:13.465Z,14.30
2018-03-18T02:14:12.859Z,14.30
2018-03-18T02:15:14.466Z,13.60
2018-03-18T02:16:14.463Z,13.90
2018-03-18T02:17:12.510Z,13.40
2018-03-18T02:18:12.963Z,14.10
2018-03-18T02:19:12.425Z,13.30
2018-03-18T02:20:12.230Z,13.60
2018-03-18T02:21:12.167Z,13.40
2018-03-18T02:22:12.090Z,13.60
2018-03-18T02:23:12.111Z,13.50
2018-03-18T02:24:12.050Z,13.80
2018-03-18T02:25:11.701Z,13.50
2018-03-18T02:26:11.668Z,13.00
2018-03-18T02:27:11.561Z,14.40
2018-03-18T02:28:11.415Z,13.40
2018-03-18T02:29:11.967Z,13.20
2018-03-18T02:30:11.304Z,14.10
2018-03-18T02:31:11.964Z,12.70
2018-03-18T02:32:11.038Z,14.20
2018-03-18T02:33:10.977Z,13.30
2018-03-18T02:34:10.877Z,13.90
2018-03-18T02:35:10.770Z,14.10
2018-03-18T02:36:10.599Z,13.40
2018-03-18T02:37:10.637Z,13.50
2018-03-18T02:38:10.963Z,14.00
2018-03-18T02:39:10.444Z,13.00
2018-03-18T02:40:10.205Z,13.30
2018-03-18T02:41:10.166Z,14.00
2018-03-18T02:42:09.980Z,13.40
2018-03-18T02:43:09.994Z,14.50
2018-03-18T02:44:10.463Z,13.00
2018-03-18T02:45:11.466Z,11.10
2018-03-18T02:46:10.463Z,13.10
2018-03-18T02:47:09.448Z,13.70
2018-03-18T02:48:09.484Z,13.50
2018-03-18T02:49:09.518Z,12.50
2018-03-18T02:50:09.143Z,13.10
2018-03-18T02:51:09.201Z,12.20
2018-03-18T02:52:09.170Z,13.50
2018-03-18T02:53:08.904Z,12.50
2018-03-18T02:54:08.736Z,13.10
2018-03-18T02:55:08.775Z,12.00
2018-03-18T02:56:09.465Z,12.80
2018-03-18T02:57:08.520Z,12.60
2018-03-18T02:58:08.366Z,12.80
2018-03-18T02:59:08.230Z,13.40
2018-03-18T03:00:08.165Z,12.40
2018-03-18T03:01:08.264Z,13.00
2018-03-18T03:02:08.010Z,12.70
2018-03-18T03:03:07.890Z,13.10
2018-03-18T03:04:07.800Z,12.30
2018-03-18T03:05:08.018Z,12.10
2018-03-18T03:06:09.466Z,12.80
2018-03-18T03:07:07.511Z,12.00
2018-03-18T03:08:07.363Z,12.40
2018-03-18T03:09:07.346Z,12.90
2018-03-18T03:10:10.468Z,12.10
2018-03-18T03:11:08.465Z,12.80
2018-03-18T03:12:06.878Z,11.50
2018-03-18T03:13:07.973Z,11.60
2018-03-18T03:14:06.635Z,11.70
2018-03-18T03:15:08.813Z,11.20
2018-03-18T03:16:07.883Z,11.90
2018-03-18T03:17:06.506Z,11.70
2018-03-18T03:18:06.273Z,11.60
2018-03-18T03:19:22.186Z,12.70
2018-03-18T03:20:07.053Z,12.80
2018-03-18T03:21:06.903Z,11.70
2018-03-18T03:29:54.710Z,11.80
2018-03-18T03:46:29.227Z,11.40
2018-03-18T04:00:46.617Z,11.80
2018-03-18T04:07:41.033Z,10.90
2018-03-18T04:08:41.096Z,11.20
2018-03-18T04:19:45.504Z,11.50
2018-03-18T04:20:45.453Z,11.10
2018-03-18T04:21:45.269Z,11.40
2018-03-18T04:32:32.752Z,11.40
2018-03-18T04:33:33.661Z,9.60
2018-03-18T04:34:34.246Z,11.50
2018-03-18T04:35:32.334Z,11.70
2018-03-18T04:36:34.305Z,10.80
2018-03-18T04:41:53.935Z,11.40
2018-03-18T05:25:39.624Z,9.10
2018-03-18T05:26:39.378Z,12.00
2018-03-18T05:55:09.805Z,12.20
2018-03-18T05:55:58.583Z,11.80
2018-03-18T05:56:58.512Z,10.80
2018-03-18T06:07:39.477Z,11.70
2018-03-18T06:08:41.501Z,14.90
2018-03-18T06:30:14.869Z,9.60
2018-03-18T06:31:14.421Z,11.00
2018-03-18T06:34:39.098Z,11.00
2018-03-18T06:35:30.200Z,10.50
2018-03-18T06:40:09.025Z,10.80
2018-03-18T06:51:47.854Z,10.20
2018-03-18T06:52:45.152Z,10.70
2018-03-18T07:02:07.894Z,9.70
2018-03-18T07:02:57.498Z,9.90
2018-03-18T07:03:56.725Z,10.40
2018-03-18T07:04:56.466Z,10.30
2018-03-18T07:10:26.341Z,10.30
2018-03-18T07:11:27.867Z,9.70
2018-03-18T07:12:27.704Z,9.60
2018-03-18T07:13:25.624Z,8.10
2018-03-18T07:14:25.523Z,9.80
2018-03-18T07:15:25.376Z,8.50
2018-03-18T07:16:25.532Z,9.20
2018-03-18T07:17:25.447Z,9.70
2018-03-18T07:18:25.069Z,9.80
2018-03-18T07:19:25.626Z,10.00
2018-03-18T07:20:25.011Z,9.80
2018-03-18T07:21:23.934Z,10.10
2018-03-18T07:22:23.925Z,9.00
2018-03-18T07:23:23.829Z,8.40
2018-03-18T07:24:23.631Z,10.00
2018-03-18T07:25:23.578Z,9.00
2018-03-18T07:26:23.495Z,9.20
2018-03-18T07:27:23.746Z,8.40
2018-03-18T07:31:08.987Z,9.30
2018-03-18T07:31:54.841Z,9.60
2018-03-18T07:32:54.637Z,9.00
2018-03-18T07:33:54.216Z,9.20
2018-03-18T07:34:54.900Z,8.30
2018-03-18T07:35:54.847Z,9.80
2018-03-18T07:36:54.866Z,9.20
2018-03-18T07:37:54.555Z,9.80
2018-03-18T07:38:54.543Z,9.50
2018-03-18T07:39:53.657Z,8.90
2018-03-18T07:40:54.086Z,9.50
2018-03-18T07:41:54.387Z,9.10
2018-03-18T07:42:54.883Z,10.00
2018-03-18T07:43:53.184Z,14.80
2018-03-18T07:44:53.032Z,21.40
2018-03-18T07:45:52.886Z,16.30
2018-03-18T07:46:52.912Z,12.70
2018-03-18T07:47:52.810Z,22.30
2018-03-18T07:48:52.917Z,13.80
2018-03-18T07:49:52.671Z,19.60
2018-03-18T07:50:52.538Z,14.40
2018-03-18T07:51:53.386Z,15.60
2018-03-18T07:52:52.573Z,11.40
2018-03-18T07:53:52.225Z,19.40
2018-03-18T07:54:52.203Z,21.50
2018-03-18T07:55:52.148Z,11.80
2018-03-18T07:56:51.868Z,16.50
2018-03-18T07:57:52.386Z,16.80
2018-03-18T07:58:54.398Z,14.70
2018-03-18T07:59:52.047Z,10.50
2018-03-18T08:00:51.601Z,10.30
2018-03-18T08:01:51.436Z,12.20
2018-03-18T08:02:51.254Z,11.00
2018-03-18T08:03:51.885Z,9.30
2018-03-18T08:04:51.037Z,9.60
2018-03-18T08:05:50.994Z,9.10
2018-03-18T08:06:50.969Z,9.30
2018-03-18T08:07:51.351Z,8.70
2018-03-18T08:08:50.668Z,9.00
2018-03-18T08:09:50.695Z,9.40
2018-03-18T08:10:50.468Z,9.10
2018-03-18T08:11:50.349Z,9.60
2018-03-18T08:12:50.301Z,9.20
2018-03-18T08:13:50.258Z,9.30
2018-03-18T08:14:50.182Z,8.70
2018-03-18T08:15:49.975Z,9.20
2018-03-18T08:16:49.948Z,9.80
2018-03-18T08:17:49.980Z,8.00
2018-03-18T08:18:49.693Z,9.30
2018-03-18T08:19:49.620Z,8.70
2018-03-18T08:20:49.460Z,9.40
2018-03-18T08:21:49.365Z,9.50
2018-03-18T08:22:49.335Z,8.90
2018-03-18T08:23:49.074Z,9.20
2018-03-18T08:24:49.179Z,9.50
2018-03-18T08:25:49.052Z,7.60
2018-03-18T08:26:49.061Z,9.50
2018-03-18T08:27:48.920Z,8.20
2018-03-18T08:28:48.626Z,8.80
2018-03-18T08:29:48.554Z,9.20
2018-03-18T08:30:48.477Z,8.40
2018-03-18T08:31:48.386Z,9.10
2018-03-18T08:32:48.249Z,9.40
2018-03-18T08:33:48.127Z,8.50
2018-03-18T08:34:48.083Z,9.60
2018-03-18T08:35:48.153Z,9.70
2018-03-18T08:36:47.848Z,8.70
2018-03-18T08:37:47.766Z,8.80
2018-03-18T08:38:47.599Z,9.70
2018-03-18T08:39:47.597Z,9.60
2018-03-18T08:40:47.460Z,8.80
2018-03-18T08:41:47.396Z,9.00
2018-03-18T08:42:47.276Z,7.80
2018-03-18T08:43:47.134Z,8.90
2018-03-18T08:44:47.028Z,8.70
2018-03-18T08:45:46.922Z,9.60
2018-03-18T08:46:46.829Z,9.60
2018-03-18T08:47:46.729Z,9.70
2018-03-18T08:48:46.669Z,9.20
2018-03-18T08:49:46.539Z,8.60
2018-03-18T08:50:46.526Z,9.40
2018-03-18T08:51:46.338Z,9.40
2018-03-18T08:52:46.291Z,11.40
2018-03-18T08:53:46.108Z,12.60
2018-03-18T08:54:46.076Z,11.90
2018-03-18T08:55:45.937Z,19.70
2018-03-18T08:56:45.891Z,29.60
2018-03-18T08:57:45.739Z,29.00
2018-03-18T08:58:45.669Z,20.10
2018-03-18T08:59:45.529Z,9.50
2018-03-18T09:00:45.462Z,22.30
2018-03-18T09:01:45.297Z,26.10
2018-03-18T09:02:45.189Z,12.30
2018-03-18T09:03:45.100Z,10.30
2018-03-18T09:04:45.014Z,10.70
2018-03-18T09:05:44.951Z,13.20
2018-03-18T09:06:44.858Z,9.30
2018-03-18T09:07:45.391Z,11.70
2018-03-18T09:08:44.642Z,11.50
2018-03-18T09:09:44.484Z,11.30
2018-03-18T09:10:44.377Z,12.30
2018-03-18T09:11:44.289Z,8.90
2018-03-18T09:12:44.257Z,9.30
2018-03-18T09:13:44.117Z,8.80
2018-03-18T09:14:44.020Z,8.60
2018-03-18T09:15:43.932Z,8.40
2018-03-18T09:16:43.787Z,8.80
2018-03-18T09:17:43.721Z,8.60
2018-03-18T09:18:43.669Z,8.80
2018-03-18T09:19:43.526Z,8.10
2018-03-18T09:20:43.428Z,9.70
2018-03-18T09:21:43.329Z,8.60
2018-03-18T09:22:43.271Z,9.00
2018-03-18T09:23:43.132Z,7.60
2018-03-18T09:24:43.086Z,8.10
2018-03-18T09:25:43.027Z,8.40
2018-03-18T09:26:42.849Z,11.30
2018-03-18T09:27:42.744Z,22.70
2018-03-18T09:28:42.635Z,20.80
2018-03-18T09:29:42.548Z,14.80
2018-03-18T09:30:42.465Z,16.90
2018-03-18T09:31:42.332Z,22.30
2018-03-18T09:32:42.245Z,21.10
2018-03-18T09:33:42.895Z,19.30
2018-03-18T09:34:42.891Z,14.50
2018-03-18T09:35:41.933Z,23.00
2018-03-18T09:36:41.872Z,14.20
2018-03-18T09:37:41.731Z,10.50
2018-03-18T09:38:41.632Z,8.70
2018-03-18T09:39:41.550Z,8.60
2018-03-18T09:40:41.403Z,8.40
2018-03-18T09:41:41.358Z,8.20
2018-03-18T09:42:41.325Z,7.50
2018-03-18T09:43:41.129Z,8.10
2018-03-18T09:44:41.050Z,8.30
2018-03-18T09:45:40.933Z,8.50
2018-03-18T09:46:40.848Z,7.80
2018-03-18T09:47:40.777Z,7.60
2018-03-18T09:48:40.694Z,7.70
2018-03-18T09:49:40.592Z,7.60
2018-03-18T09:50:40.554Z,8.20
2018-03-18T09:51:40.375Z,7.80
2018-03-18T09:52:40.893Z,7.60
2018-03-18T09:53:40.145Z,7.00
2018-03-18T09:54:40.140Z,6.90
2018-03-18T09:55:40.895Z,7.40
2018-03-18T09:56:39.849Z,7.80
2018-03-18T09:57:39.746Z,7.50
2018-03-18T09:58:39.675Z,8.10
2018-03-18T09:59:39.577Z,8.00
2018-03-18T10:00:39.517Z,7.50
2018-03-18T10:01:39.397Z,8.40
2018-03-18T10:02:39.243Z,7.90
2018-03-18T10:03:39.160Z,7.70
2018-03-18T10:04:39.104Z,7.60
2018-03-18T10:05:38.981Z,7.80
2018-03-18T10:06:38.917Z,7.60
2018-03-18T10:07:38.788Z,7.70
2018-03-18T10:08:38.692Z,7.60
2018-03-18T10:09:38.599Z,7.80
2018-03-18T10:10:38.525Z,14.20
2018-03-18T10:11:38.477Z,9.30
2018-03-18T10:12:38.358Z,8.90
2018-03-18T10:13:38.226Z,8.30
2018-03-18T10:14:38.113Z,8.70
2018-03-18T10:15:38.004Z,8.90
2018-03-18T10:16:37.903Z,9.10
2018-03-18T10:17:37.837Z,9.90
2018-03-18T10:18:37.759Z,8.20
2018-03-18T10:19:37.610Z,11.60
2018-03-18T10:20:37.510Z,10.70
2018-03-18T10:21:37.433Z,11.00
2018-03-18T10:22:37.349Z,10.70
2018-03-18T10:23:37.222Z,9.80
2018-03-18T10:24:37.190Z,8.60
2018-03-18T10:25:37.002Z,7.50
2018-03-18T10:26:36.928Z,8.90
2018-03-18T10:27:36.842Z,9.00
2018-03-18T10:28:36.748Z,7.60
2018-03-18T10:29:36.711Z,9.10
2018-03-18T10:30:36.647Z,8.90
2018-03-18T10:31:36.453Z,10.80
2018-03-18T10:32:36.461Z,11.60
2018-03-18T10:33:36.352Z,17.10
2018-03-18T10:34:36.307Z,17.40
2018-03-18T10:35:36.260Z,35.10
2018-03-18T10:36:36.261Z,42.00
2018-03-18T10:37:36.528Z,19.60
2018-03-18T10:38:36.891Z,21.80
2018-03-18T10:39:35.801Z,27.70
2018-03-18T10:40:35.599Z,23.10
2018-03-18T10:41:35.522Z,20.30
2018-03-18T10:42:35.478Z,38.70
2018-03-18T10:43:35.333Z,40.50
2018-03-18T10:44:35.233Z,22.00
2018-03-18T10:45:35.110Z,30.40
2018-03-18T10:46:35.030Z,25.80
2018-03-18T10:47:34.942Z,15.40
2018-03-18T10:48:34.914Z,15.10
2018-03-18T10:49:34.767Z,19.50
2018-03-18T10:50:34.673Z,26.10
2018-03-18T10:51:34.557Z,18.60
2018-03-18T10:52:34.473Z,13.60
2018-03-18T10:53:34.393Z,9.50
2018-03-18T10:54:34.344Z,15.10
2018-03-18T10:55:34.142Z,9.60
2018-03-18T10:56:34.083Z,8.40
2018-03-18T10:57:33.946Z,7.50
2018-03-18T10:58:33.900Z,7.00
2018-03-18T10:59:33.748Z,7.80
2018-03-18T11:00:33.694Z,6.80
2018-03-18T11:01:33.580Z,7.00
2018-03-18T11:02:33.548Z,7.60
2018-03-18T11:03:33.396Z,7.30
2018-03-18T11:04:33.294Z,7.70
2018-03-18T11:05:33.225Z,6.80
2018-03-18T11:06:33.177Z,6.30
2018-03-18T11:07:33.022Z,7.50
2018-03-18T11:08:32.924Z,7.20
2018-03-18T11:09:32.811Z,7.30
2018-03-18T11:10:32.745Z,7.20
2018-03-18T11:11:32.615Z,7.50
2018-03-18T11:12:32.668Z,7.40
2018-03-18T11:13:32.448Z,7.30
2018-03-18T11:14:32.329Z,7.70
2018-03-18T11:15:32.282Z,7.20
2018-03-18T11:16:32.139Z,7.00
2018-03-18T11:17:32.037Z,6.80
2018-03-18T11:18:31.980Z,7.10
2018-03-18T11:19:31.838Z,7.20
2018-03-18T11:20:31.766Z,6.80
2018-03-18T11:21:31.664Z,7.20
2018-03-18T11:22:31.568Z,7.30
2018-03-18T11:23:31.450Z,6.70
2018-03-18T11:24:31.483Z,8.10
2018-03-18T11:25:31.306Z,16.00
2018-03-18T11:26:31.195Z,9.90
2018-03-18T11:27:31.095Z,8.90
2018-03-18T11:28:31.029Z,10.20
2018-03-18T11:29:30.948Z,9.40
2018-03-18T11:30:30.870Z,12.90
2018-03-18T11:31:30.736Z,8.40
2018-03-18T11:32:30.634Z,7.50
2018-03-18T11:33:30.543Z,11.30
2018-03-18T11:34:30.437Z,8.30
2018-03-18T11:35:30.343Z,8.70
2018-03-18T11:36:30.304Z,9.50
2018-03-18T11:37:30.163Z,13.70
2018-03-18T11:38:30.060Z,11.30
2018-03-18T11:39:30.016Z,16.30
2018-03-18T11:40:29.890Z,11.30
2018-03-18T11:41:29.770Z,12.30
2018-03-18T11:42:29.767Z,8.40
2018-03-18T11:43:29.548Z,13.10
2018-03-18T11:44:29.497Z,10.80
2018-03-18T11:45:29.381Z,9.80
2018-03-18T11:46:29.268Z,8.40
2018-03-18T11:47:29.191Z,9.00
2018-03-18T11:48:29.135Z,8.10
2018-03-18T11:49:29.017Z,8.10
2018-03-18T11:50:28.876Z,8.50
2018-03-18T11:51:28.808Z,7.30
2018-03-18T11:52:28.722Z,7.70
2018-03-18T11:53:28.655Z,7.20
2018-03-18T11:54:28.568Z,7.10
2018-03-18T11:55:28.443Z,7.30
2018-03-18T11:56:28.338Z,7.50
2018-03-18T11:57:28.210Z,7.20
2018-03-18T11:58:28.143Z,7.20
2018-03-18T11:59:28.060Z,6.10
2018-03-18T12:00:28.028Z,6.90
2018-03-18T12:01:27.848Z,7.00
2018-03-18T12:02:27.778Z,6.70
2018-03-18T12:03:27.703Z,7.20
2018-03-18T12:04:27.561Z,7.20
2018-03-18T12:05:27.500Z,7.50
2018-03-18T12:06:27.483Z,6.90
2018-03-18T12:07:27.257Z,6.60
2018-03-18T12:08:27.195Z,7.40
2018-03-18T12:09:27.082Z,7.20
2018-03-18T12:10:26.965Z,7.20
2018-03-18T12:11:26.871Z,6.90
2018-03-18T12:12:26.808Z,6.80
2018-03-18T12:13:26.689Z,7.20
2018-03-18T12:14:26.585Z,6.70
2018-03-18T12:15:26.476Z,7.60
2018-03-18T12:16:26.380Z,6.60
2018-03-18T12:17:26.329Z,6.40
2018-03-18T12:18:26.240Z,6.80
2018-03-18T12:19:26.191Z,6.50
2018-03-18T12:20:26.033Z,6.00
2018-03-18T12:21:25.955Z,7.10
2018-03-18T12:22:25.834Z,7.00
2018-03-18T12:23:25.731Z,6.70
2018-03-18T12:24:25.686Z,6.80
2018-03-18T12:25:25.592Z,6.80
2018-03-18T12:26:25.462Z,6.90
2018-03-18T12:27:25.378Z,7.60
2018-03-18T12:28:25.246Z,6.60
2018-03-18T12:29:25.160Z,7.10
2018-03-18T12:30:25.124Z,6.60
2018-03-18T12:31:24.939Z,6.50
2018-03-18T12:32:24.853Z,6.80
2018-03-18T12:33:24.756Z,6.50
2018-03-18T12:34:24.685Z,6.80
2018-03-18T12:35:24.546Z,6.90
2018-03-18T12:36:24.537Z,6.90
2018-03-18T12:37:24.367Z,6.40
2018-03-18T12:38:24.261Z,6.80
2018-03-18T12:39:24.168Z,7.30
2018-03-18T12:40:24.113Z,6.80
2018-03-18T12:41:23.948Z,6.40
2018-03-18T12:42:23.923Z,6.80
2018-03-18T12:43:23.775Z,6.50
2018-03-18T12:44:23.710Z,6.50
2018-03-18T12:45:23.616Z,6.60
2018-03-18T12:46:23.486Z,6.60
2018-03-18T12:47:23.434Z,6.50
2018-03-18T12:48:23.365Z,6.80
2018-03-18T12:49:23.240Z,7.10
2018-03-18T12:50:23.183Z,7.10
2018-03-18T12:51:23.163Z,7.50
2018-03-18T12:52:22.972Z,6.70
2018-03-18T12:53:22.842Z,6.70
2018-03-18T12:54:23.603Z,7.10
2018-03-18T12:55:22.629Z,6.60
2018-03-18T12:56:22.539Z,6.80
2018-03-18T12:57:22.547Z,7.40
2018-03-18T12:58:22.369Z,6.70
2018-03-18T12:59:22.277Z,6.60
2018-03-18T13:00:22.176Z,7.00
2018-03-18T13:01:22.045Z,6.70
2018-03-18T13:02:21.949Z,6.00
2018-03-18T13:03:21.997Z,6.40
2018-03-18T13:04:21.782Z,6.20
2018-03-18T13:05:21.701Z,6.20
2018-03-18T13:06:21.637Z,7.20
2018-03-18T13:07:21.507Z,6.80
2018-03-18T13:08:21.360Z,6.90
2018-03-18T13:09:21.310Z,7.00
2018-03-18T13:10:21.199Z,6.60
2018-03-18T13:11:21.094Z,6.70
2018-03-18T13:12:21.124Z,6.10
2018-03-18T13:13:20.909Z,6.10
2018-03-18T13:14:20.792Z,6.50
2018-03-18T13:15:20.753Z,6.50
2018-03-18T13:16:20.638Z,6.10
2018-03-18T13:17:20.529Z,6.40
2018-03-18T13:18:21.097Z,6.70
2018-03-18T13:19:20.391Z,7.40
2018-03-18T13:20:20.296Z,6.70
2018-03-18T13:21:20.112Z,10.70
2018-03-18T13:22:20.033Z,10.00
2018-03-18T13:23:19.914Z,14.00
2018-03-18T13:24:20.023Z,8.80
2018-03-18T13:25:19.720Z,10.90
2018-03-18T13:26:19.629Z,7.80
2018-03-18T13:27:19.529Z,10.20
2018-03-18T13:28:19.435Z,11.00
2018-03-18T13:29:19.329Z,12.30
2018-03-18T13:30:19.291Z,16.40
2018-03-18T13:31:19.253Z,13.60
2018-03-18T13:32:19.066Z,11.00
2018-03-18T13:33:18.962Z,18.50
2018-03-18T13:34:18.858Z,8.80
2018-03-18T13:35:18.765Z,10.00
2018-03-18T13:36:18.731Z,9.70
2018-03-18T13:37:18.704Z,7.90
2018-03-18T13:38:18.578Z,12.20
2018-03-18T13:39:18.416Z,9.10
2018-03-18T13:40:18.315Z,9.30
2018-03-18T13:41:18.171Z,7.20
2018-03-18T13:42:18.133Z,7.70
2018-03-18T13:43:17.994Z,7.10
2018-03-18T13:44:17.916Z,6.70
2018-03-18T13:45:17.792Z,7.30
2018-03-18T13:46:17.677Z,6.40
2018-03-18T13:47:17.592Z,6.60
2018-03-18T13:48:17.539Z,6.20
2018-03-18T13:49:17.429Z,6.70
2018-03-18T13:50:17.323Z,6.30
2018-03-18T13:51:17.307Z,7.10
2018-03-18T13:52:17.117Z,6.80
2018-03-18T13:53:17.009Z,7.00
2018-03-18T13:54:16.980Z,6.40
2018-03-18T13:55:16.826Z,7.30
2018-03-18T13:56:16.718Z,9.80
2018-03-18T13:57:16.633Z,8.20
2018-03-18T13:58:16.566Z,7.20
2018-03-18T13:59:16.442Z,6.90
2018-03-18T14:00:16.424Z,6.50
2018-03-18T14:01:16.284Z,6.40
2018-03-18T14:02:16.158Z,6.50
2018-03-18T14:03:16.152Z,6.30
2018-03-18T14:04:15.977Z,6.20
2018-03-18T14:05:15.877Z,7.00
2018-03-18T14:06:15.830Z,8.40
2018-03-18T14:07:15.637Z,6.00
2018-03-18T14:08:15.557Z,6.50
2018-03-18T14:09:15.474Z,6.20
2018-03-18T14:10:15.353Z,6.40
2018-03-18T14:11:15.273Z,5.90
2018-03-18T14:12:15.256Z,6.20
2018-03-18T14:13:15.088Z,6.00
2018-03-18T14:14:14.954Z,6.90
2018-03-18T14:15:14.886Z,6.00
2018-03-18T14:16:14.813Z,6.30
2018-03-18T14:17:14.690Z,6.10
2018-03-18T14:18:14.636Z,6.80
2018-03-18T14:19:14.518Z,6.80
2018-03-18T14:20:14.401Z,6.10
2018-03-18T14:21:14.358Z,6.80
2018-03-18T14:22:14.242Z,6.90
2018-03-18T14:23:14.108Z,6.50
2018-03-18T14:24:14.126Z,6.00
2018-03-18T14:25:13.943Z,6.60
2018-03-18T14:26:13.836Z,5.80
2018-03-18T14:27:13.795Z,6.30
2018-03-18T14:28:13.649Z,7.00
2018-03-18T14:29:13.594Z,5.90
2018-03-18T14:30:13.477Z,6.70
2018-03-18T14:31:13.317Z,7.10
2018-03-18T14:32:13.233Z,7.50
2018-03-18T14:33:13.109Z,6.50
2018-03-18T14:34:13.054Z,7.20
2018-03-18T14:35:12.927Z,6.60
2018-03-18T14:36:12.866Z,6.40
2018-03-18T14:37:12.727Z,5.90
2018-03-18T14:38:12.650Z,6.30
2018-03-18T14:39:12.530Z,6.60
2018-03-18T14:40:12.479Z,6.40
2018-03-18T14:41:12.327Z,6.80
2018-03-18T14:42:13.106Z,8.70
2018-03-18T14:43:12.173Z,12.40
2018-03-18T14:44:12.077Z,10.50
2018-03-18T14:45:11.959Z,30.00
2018-03-18T14:46:11.899Z,15.00
2018-03-18T14:47:11.792Z,6.30
2018-03-18T14:48:11.731Z,9.60
2018-03-18T14:49:11.554Z,8.50
2018-03-18T14:50:11.483Z,9.30
2018-03-18T14:51:11.436Z,9.60
2018-03-18T14:52:11.252Z,12.00
2018-03-18T14:53:11.179Z,8.30
2018-03-18T14:54:11.163Z,6.20
2018-03-18T14:55:10.962Z,6.80
2018-03-18T14:56:10.861Z,6.30
2018-03-18T14:57:10.759Z,6.20
2018-03-18T14:58:10.685Z,6.30
2018-03-18T14:59:10.565Z,6.80
2018-03-18T15:00:10.542Z,5.90
2018-03-18T15:01:10.418Z,7.10
2018-03-18T15:02:10.271Z,6.20
2018-03-18T15:03:10.193Z,6.80
2018-03-18T15:04:10.102Z,6.40
2018-03-18T15:05:10.021Z,5.30
2018-03-18T15:06:09.985Z,6.30
2018-03-18T15:07:09.796Z,6.40
2018-03-18T15:08:09.730Z,6.50
2018-03-18T15:09:09.605Z,6.00
2018-03-18T15:10:09.521Z,6.20
2018-03-18T15:11:09.395Z,6.90
2018-03-18T15:12:09.355Z,6.90
2018-03-18T15:13:09.198Z,7.00
2018-03-18T15:14:09.127Z,6.30
2018-03-18T15:15:09.024Z,6.20
2018-03-18T15:16:08.933Z,6.60
2018-03-18T15:17:08.792Z,6.70
2018-03-18T15:18:08.774Z,10.50
2018-03-18T15:19:08.641Z,7.70
2018-03-18T15:20:08.582Z,6.60
2018-03-18T15:21:08.473Z,6.20
2018-03-18T15:22:08.344Z,6.40
2018-03-18T15:23:08.214Z,5.70
2018-03-18T15:24:08.153Z,7.00
2018-03-18T15:25:08.044Z,7.10
2018-03-18T15:26:07.915Z,7.30
2018-03-18T15:27:07.863Z,10.80
2018-03-18T15:28:07.730Z,7.00
2018-03-18T15:29:07.630Z,5.80
2018-03-18T15:30:07.590Z,7.60
2018-03-18T15:31:07.495Z,6.20
2018-03-18T15:32:07.359Z,8.20
2018-03-18T15:33:07.229Z,8.40
2018-03-18T15:34:07.161Z,7.90
2018-03-18T15:35:07.065Z,8.80
2018-03-18T15:36:07.037Z,11.10
2018-03-18T15:37:06.840Z,8.10
2018-03-18T15:38:06.775Z,12.40
2018-03-18T15:39:06.666Z,10.60
2018-03-18T15:40:06.577Z,8.30
2018-03-18T15:41:06.481Z,11.40
2018-03-18T15:42:06.396Z,10.70
2018-03-18T15:43:06.302Z,11.50
2018-03-18T15:44:06.201Z,9.50
2018-03-18T15:45:06.097Z,9.60
2018-03-18T15:46:05.954Z,8.60
2018-03-18T15:47:05.880Z,8.70
2018-03-18T15:48:05.868Z,9.20
2018-03-18T15:49:05.651Z,6.80
2018-03-18T15:50:05.574Z,8.70
2018-03-18T15:51:05.462Z,6.40
2018-03-18T15:52:05.392Z,7.90
2018-03-18T15:53:05.290Z,5.90
2018-03-18T15:54:05.257Z,6.30
2018-03-18T15:55:05.125Z,7.30
2018-03-18T15:56:05.031Z,8.00
2018-03-18T15:57:04.915Z,6.60
2018-03-18T15:58:04.770Z,7.10
2018-03-18T15:59:04.697Z,6.90
2018-03-18T16:00:04.622Z,6.40
2018-03-18T16:01:04.504Z,6.00
2018-03-18T16:02:04.371Z,6.10
2018-03-18T16:03:04.281Z,6.50
2018-03-18T16:04:04.171Z,6.80
2018-03-18T16:05:04.084Z,7.50
2018-03-18T16:06:04.022Z,7.30
2018-03-18T16:07:03.919Z,7.10
2018-03-18T16:08:03.756Z,7.80
2018-03-18T16:09:03.687Z,7.10
2018-03-18T16:10:03.620Z,9.60
2018-03-18T16:11:03.569Z,7.40
2018-03-18T16:12:03.474Z,7.50
2018-03-18T16:13:03.323Z,7.00
2018-03-18T16:14:03.225Z,8.10
2018-03-18T16:15:03.198Z,6.90
2018-03-18T16:16:02.969Z,6.80
2018-03-18T16:17:02.911Z,6.00
2018-03-18T16:18:02.842Z,6.30
2018-03-18T16:19:02.682Z,8.20
2018-03-18T16:20:02.593Z,6.60
2018-03-18T16:21:02.493Z,7.10
2018-03-18T16:22:02.417Z,6.60
2018-03-18T16:23:02.279Z,6.70
2018-03-18T16:24:02.272Z,6.50